Time;durP1;ratioP1;P1;durP2;ratioP2;P2;SDS_P1;SDS_P2;PMS_P1;PMS_P2;Temp;Humidity;BMP_temperature;BMP_pressure;BME280_temperature;BME280_humidity;BME280_pressure;Samples;Min_cycle;Max_cycle;Signal;HPM_P1;HPM_P2
2023/05/24 00:02:19;;;;;;;4.13;1.20;;;9.30;99.90;;;;;;5067668;28;20032;-81
2023/05/24 00:04:44;;;;;;;7.07;1.40;;;9.20;99.90;;;;;;5075289;28;20067;-82
2023/05/24 00:07:10;;;;;;;4.45;1.30;;;9.20;99.90;;;;;;5065814;28;20492;-80
2023/05/24 00:09:36;;;;;;;5.22;1.38;;;9.20;99.90;;;;;;5073243;28;20104;-83
2023/05/24 00:12:02;;;;;;;3.70;1.00;;;9.10;99.90;;;;;;5076123;28;20028;-82
2023/05/24 00:14:27;;;;;;;7.75;1.20;;;9.10;99.90;;;;;;5074436;28;20174;-82
2023/05/24 00:16:53;;;;;;;5.25;1.35;;;9.00;99.90;;;;;;5075245;28;20030;-82
2023/05/24 00:19:21;;;;;;;4.53;1.20;;;8.90;99.90;;;;;;5061272;28;20038;-82
2023/05/24 00:21:47;;;;;;;4.65;0.85;;;9.00;99.90;;;;;;5074506;28;20028;-84
2023/05/24 00:24:13;;;;;;;7.63;1.75;;;8.90;99.90;;;;;;5075023;28;20585;-82
2023/05/24 00:26:39;;;;;;;6.00;1.35;;;8.90;99.90;;;;;;5074347;28;20024;-82
2023/05/24 00:29:05;;;;;;;5.25;1.20;;;8.90;99.90;;;;;;5063241;28;20078;-83
2023/05/24 00:31:30;;;;;;;5.30;1.17;;;8.80;99.90;;;;;;5074999;28;20017;-83
2023/05/24 00:33:56;;;;;;;4.13;0.90;;;8.80;99.90;;;;;;5064574;28;20115;-82
2023/05/24 00:36:22;;;;;;;4.68;1.20;;;8.80;99.90;;;;;;5064022;28;20016;-83
2023/05/24 00:38:47;;;;;;;5.53;1.17;;;8.70;99.90;;;;;;5059570;28;20023;-83
2023/05/24 00:41:14;;;;;;;5.95;1.50;;;8.70;99.90;;;;;;5074319;28;20032;-82
2023/05/24 00:43:42;;;;;;;2.95;1.00;;;8.70;99.90;;;;;;5072607;28;20420;-83
2023/05/24 00:46:21;;;;;;;4.53;0.88;;;8.60;99.90;;;;;;5063683;28;20099;-83
2023/05/24 00:48:48;;;;;;;5.75;1.20;;;8.60;99.90;;;;;;5062100;28;20043;-83
2023/05/24 00:51:14;;;;;;;4.40;1.00;;;8.50;99.90;;;;;;5073978;28;20084;-82
2023/05/24 00:53:43;;;;;;;5.22;1.15;;;8.50;99.90;;;;;;5062181;28;20480;-82
2023/05/24 00:56:10;;;;;;;3.10;1.00;;;8.50;99.90;;;;;;5067277;28;20054;-82
2023/05/24 00:58:35;;;;;;;5.85;1.20;;;8.50;99.90;;;;;;5064343;28;20024;-81
2023/05/24 01:01:02;;;;;;;4.28;1.02;;;8.50;99.90;;;;;;5073584;28;20500;-81
2023/05/24 01:03:28;;;;;;;4.55;1.00;;;8.40;99.90;;;;;;5061634;28;20083;-81
2023/05/24 01:06:00;;;;;;;3.92;1.15;;;8.40;99.90;;;;;;5075026;28;20012;-81
2023/05/24 01:08:37;;;;;;;6.18;1.27;;;8.40;99.90;;;;;;5058075;28;20042;-82
2023/05/24 01:11:38;;;;;;;5.20;1.17;;;8.40;99.90;;;;;;5058359;28;20033;-81
2023/05/24 01:14:13;;;;;;;3.85;1.20;;;8.40;99.90;;;;;;5072979;28;20366;-82
2023/05/24 01:17:18;;;;;;;5.38;1.05;;;8.30;99.90;;;;;;5073935;28;20060;-82
2023/05/24 01:19:51;;;;;;;3.83;1.20;;;8.30;99.90;;;;;;4987460;28;20045;-81
2023/05/24 01:22:54;;;;;;;7.78;1.67;;;8.30;99.90;;;;;;5060554;28;20052;-84
2023/05/24 01:25:57;;;;;;;4.85;1.55;;;8.20;99.90;;;;;;5075078;28;20032;-81
2023/05/24 01:28:24;;;;;;;6.95;1.40;;;8.20;99.90;;;;;;5061694;28;20454;-81
2023/05/24 01:30:51;;;;;;;5.93;1.50;;;8.10;99.90;;;;;;5066487;28;20020;-80
2023/05/24 01:33:16;;;;;;;7.55;1.67;;;8.10;99.90;;;;;;5074634;28;20438;-81
2023/05/24 01:35:42;;;;;;;6.85;2.10;;;8.00;99.90;;;;;;5057214;28;20020;-81
2023/05/24 01:38:09;;;;;;;5.95;1.45;;;8.00;99.90;;;;;;5072693;28;20034;-82
2023/05/24 01:40:36;;;;;;;6.18;1.20;;;8.00;99.90;;;;;;5057827;28;20028;-81
2023/05/24 01:43:22;;;;;;;7.03;1.35;;;7.90;99.90;;;;;;5074410;28;21127;-82
2023/05/24 01:45:56;;;;;;;6.80;1.50;;;8.00;99.90;;;;;;5059024;28;20528;-81
2023/05/24 01:48:36;;;;;;;3.95;1.52;;;7.90;99.90;;;;;;5074985;28;20030;-83
2023/05/24 01:51:07;;;;;;;5.65;1.27;;;7.90;99.90;;;;;;5072698;28;20036;-82
2023/05/24 01:53:39;;;;;;;4.78;1.40;;;7.90;99.90;;;;;;5063489;28;20079;-81
2023/05/24 01:56:05;;;;;;;5.25;1.60;;;7.90;99.90;;;;;;5072495;28;20024;-81
2023/05/24 01:58:32;;;;;;;5.00;1.40;;;7.80;99.90;;;;;;5072863;28;20027;-82
2023/05/24 02:00:59;;;;;;;5.07;1.60;;;7.80;99.90;;;;;;5063414;28;20039;-81
2023/05/24 02:03:25;;;;;;;4.15;1.75;;;7.80;99.90;;;;;;5064422;28;20044;-81
2023/05/24 02:05:50;;;;;;;3.95;1.25;;;7.80;99.90;;;;;;5071651;28;20035;-82
2023/05/24 02:08:16;;;;;;;5.90;1.48;;;7.80;99.90;;;;;;5062294;28;20792;-82
2023/05/24 02:10:41;;;;;;;4.00;1.33;;;7.70;99.90;;;;;;5056789;28;20027;-82
2023/05/24 02:13:08;;;;;;;6.35;1.52;;;7.70;99.90;;;;;;5073379;28;20028;-82
2023/05/24 02:15:34;;;;;;;7.25;1.60;;;7.70;99.90;;;;;;5062842;28;20071;-82
2023/05/24 02:18:00;;;;;;;5.97;1.40;;;7.70;99.90;;;;;;5063014;28;20024;-82
2023/05/24 02:20:29;;;;;;;5.30;1.55;;;7.70;99.90;;;;;;5056225;28;20878;-82
2023/05/24 02:22:58;;;;;;;7.97;1.60;;;7.70;99.90;;;;;;5056440;28;20048;-81
2023/05/24 02:25:24;;;;;;;5.28;1.52;;;7.60;99.90;;;;;;5072526;28;20024;-82
2023/05/24 02:27:50;;;;;;;5.95;1.20;;;7.60;99.90;;;;;;5073110;28;20069;-81
2023/05/24 02:30:16;;;;;;;4.07;1.23;;;7.60;99.90;;;;;;5074266;28;20044;-82
2023/05/24 02:32:42;;;;;;;3.65;1.40;;;7.60;99.90;;;;;;5073770;28;20060;-82
2023/05/24 02:35:07;;;;;;;7.40;1.83;;;7.70;99.90;;;;;;5072903;28;20033;-82
2023/05/24 02:37:33;;;;;;;3.72;1.30;;;7.60;99.90;;;;;;5057587;28;20028;-82
2023/05/24 02:39:58;;;;;;;6.55;1.70;;;7.60;99.90;;;;;;5062494;28;20016;-82
2023/05/24 02:42:24;;;;;;;5.43;2.08;;;7.70;99.90;;;;;;5062074;28;20355;-81
2023/05/24 02:44:51;;;;;;;5.40;1.52;;;7.60;99.90;;;;;;5057488;28;20020;-81
2023/05/24 02:47:17;;;;;;;7.20;1.75;;;7.60;99.90;;;;;;5058425;28;20435;-81
2023/05/24 02:49:43;;;;;;;7.95;2.00;;;7.60;99.90;;;;;;5071197;28;20045;-80
2023/05/24 02:52:08;;;;;;;6.07;1.70;;;7.60;99.90;;;;;;5073295;28;20036;-81
2023/05/24 02:54:35;;;;;;;4.95;1.38;;;7.60;99.90;;;;;;5072972;28;20371;-82
2023/05/24 02:57:02;;;;;;;5.80;1.52;;;7.60;99.90;;;;;;5060863;28;20038;-83
2023/05/24 02:59:27;;;;;;;3.65;1.40;;;7.60;99.90;;;;;;5073859;28;20115;-81
2023/05/24 03:01:53;;;;;;;5.13;1.60;;;7.60;99.90;;;;;;5073420;28;20481;-81
2023/05/24 03:04:19;;;;;;;4.35;1.38;;;7.60;99.90;;;;;;5071036;28;20447;-81
2023/05/24 03:06:44;;;;;;;4.40;1.60;;;7.60;99.90;;;;;;5061332;28;20035;-81
2023/05/24 03:09:10;;;;;;;5.55;1.90;;;7.60;99.90;;;;;;5073581;28;20097;-82
2023/05/24 03:11:35;;;;;;;3.78;1.85;;;7.60;99.90;;;;;;5061780;28;20024;-82
2023/05/24 03:14:01;;;;;;;2.85;1.25;;;7.60;99.90;;;;;;5062647;28;20028;-83
2023/05/24 03:16:27;;;;;;;4.47;1.40;;;7.60;99.90;;;;;;5073442;28;20115;-81
2023/05/24 03:18:54;;;;;;;4.68;1.50;;;7.60;99.90;;;;;;5070783;28;20121;-81
2023/05/24 03:21:20;;;;;;;5.70;1.50;;;7.50;99.90;;;;;;5071894;28;20494;-80
2023/05/24 03:23:45;;;;;;;5.78;1.63;;;7.50;99.90;;;;;;5076843;28;20042;-81
2023/05/24 03:26:12;;;;;;;4.63;1.38;;;7.50;99.90;;;;;;5060053;28;20020;-79
2023/05/24 03:28:39;;;;;;;4.53;1.80;;;7.50;99.90;;;;;;5064106;28;20020;-82
2023/05/24 03:31:05;;;;;;;5.22;1.50;;;7.50;99.90;;;;;;5077056;28;20593;-82
2023/05/24 03:33:31;;;;;;;4.28;1.73;;;7.50;99.90;;;;;;5064355;28;20607;-82
2023/05/24 03:35:56;;;;;;;4.72;1.55;;;7.50;99.90;;;;;;5067912;28;20024;-82
2023/05/24 03:38:22;;;;;;;4.47;1.88;;;7.50;99.90;;;;;;5076425;28;20085;-83
2023/05/24 03:40:47;;;;;;;4.97;1.80;;;7.50;99.90;;;;;;5060074;28;20363;-83
2023/05/24 03:43:13;;;;;;;3.88;1.63;;;7.50;99.90;;;;;;5062059;28;20066;-83
2023/05/24 03:45:39;;;;;;;4.40;1.60;;;7.40;99.90;;;;;;5064678;28;20123;-82
2023/05/24 03:48:04;;;;;;;6.28;1.98;;;7.50;99.90;;;;;;5067004;28;20031;-82
2023/05/24 03:50:30;;;;;;;4.63;2.03;;;7.50;99.90;;;;;;5063440;28;20035;-82
2023/05/24 03:52:55;;;;;;;6.28;1.83;;;7.40;99.90;;;;;;5075852;28;20032;-82
2023/05/24 03:55:21;;;;;;;5.32;1.90;;;7.40;99.90;;;;;;5062792;28;20032;-82
2023/05/24 03:57:46;;;;;;;7.60;2.63;;;7.40;99.90;;;;;;5075251;28;20024;-82
2023/05/24 04:00:12;;;;;;;5.78;2.20;;;7.40;99.90;;;;;;5062349;28;20103;-81
2023/05/24 04:02:38;;;;;;;6.20;2.05;;;7.40;99.90;;;;;;5074742;28;20040;-82
2023/05/24 04:05:08;;;;;;;5.68;2.40;;;7.50;99.90;;;;;;5065305;28;20024;-82
2023/05/24 04:07:37;;;;;;;6.95;2.28;;;7.50;99.90;;;;;;5058613;28;20363;-83
2023/05/24 04:10:04;;;;;;;7.30;2.35;;;7.40;99.90;;;;;;5076633;28;20051;-82
2023/05/24 04:12:31;;;;;;;6.57;2.92;;;7.50;99.90;;;;;;5075661;28;20111;-81
2023/05/24 04:14:57;;;;;;;5.57;2.03;;;7.50;99.90;;;;;;5062837;28;20040;-82
2023/05/24 04:17:26;;;;;;;4.15;2.08;;;7.60;99.90;;;;;;5073713;28;20112;-82
2023/05/24 04:19:52;;;;;;;6.15;2.47;;;7.60;99.90;;;;;;5075979;28;20220;-82
2023/05/24 04:22:17;;;;;;;6.82;2.50;;;7.60;99.90;;;;;;5064448;28;20040;-82
2023/05/24 04:24:46;;;;;;;5.07;1.92;;;7.60;99.90;;;;;;5062528;28;20044;-82
2023/05/24 04:27:12;;;;;;;7.25;2.28;;;7.60;99.90;;;;;;5076720;28;20449;-82
2023/05/24 04:29:40;;;;;;;5.15;2.20;;;7.60;99.90;;;;;;5076121;28;20059;-82
2023/05/24 04:32:08;;;;;;;4.18;2.00;;;7.60;99.90;;;;;;5063347;28;20060;-83
2023/05/24 04:34:34;;;;;;;5.65;1.85;;;7.70;99.90;;;;;;5073790;28;20460;-82
2023/05/24 04:37:01;;;;;;;8.20;2.30;;;7.70;99.90;;;;;;5059530;28;20303;-82
2023/05/24 04:39:28;;;;;;;6.10;2.20;;;7.70;99.90;;;;;;5059488;28;20028;-82
2023/05/24 04:41:56;;;;;;;6.45;2.20;;;7.80;99.90;;;;;;5075616;28;20029;-81
2023/05/24 04:44:23;;;;;;;9.88;2.97;;;7.80;99.90;;;;;;5064935;28;20044;-82
2023/05/24 04:46:48;;;;;;;6.65;2.72;;;7.90;99.90;;;;;;5065893;28;20424;-82
2023/05/24 04:49:14;;;;;;;7.25;2.80;;;7.90;99.90;;;;;;5058949;28;20085;-81
2023/05/24 04:51:40;;;;;;;10.05;3.60;;;7.90;99.90;;;;;;5074699;28;20109;-82
2023/05/24 04:54:07;;;;;;;8.32;2.67;;;7.90;99.90;;;;;;5042545;28;20036;-83
2023/05/24 04:56:37;;;;;;;8.50;3.15;;;7.90;99.90;;;;;;5057450;28;20020;-82
2023/05/24 04:59:07;;;;;;;12.18;3.83;;;8.00;99.90;;;;;;5061843;28;20514;-82
2023/05/24 05:01:33;;;;;;;7.13;3.83;;;8.00;99.90;;;;;;5074096;28;20400;-81
2023/05/24 05:03:58;;;;;;;8.27;3.53;;;8.10;99.90;;;;;;5063667;28;20040;-81
2023/05/24 05:06:24;;;;;;;7.03;2.65;;;8.10;99.90;;;;;;5057024;28;20032;-82
2023/05/24 05:08:50;;;;;;;8.35;2.85;;;8.20;99.90;;;;;;5073810;28;20774;-81
2023/05/24 05:11:17;;;;;;;4.75;2.53;;;8.40;99.90;;;;;;5074478;28;20038;-83
2023/05/24 05:13:43;;;;;;;9.40;3.20;;;8.40;99.90;;;;;;5074811;28;20029;-82
2023/05/24 05:16:09;;;;;;;7.40;2.83;;;8.50;99.90;;;;;;5071395;28;20036;-82
2023/05/24 05:18:35;;;;;;;8.20;3.10;;;8.60;99.90;;;;;;5052815;28;20039;-82
2023/05/24 05:21:01;;;;;;;5.70;2.45;;;8.60;99.90;;;;;;5053134;28;20028;-82
2023/05/24 05:23:27;;;;;;;7.28;2.33;;;8.70;99.90;;;;;;5070866;28;20523;-83
2023/05/24 05:25:53;;;;;;;7.70;3.20;;;8.80;99.90;;;;;;5071927;28;20036;-82
2023/05/24 05:28:19;;;;;;;9.45;3.70;;;8.90;99.90;;;;;;5071103;28;20483;-82
2023/05/24 05:30:44;;;;;;;8.90;3.55;;;8.90;99.90;;;;;;5071153;28;20032;-83
2023/05/24 05:33:10;;;;;;;8.70;3.33;;;9.00;99.90;;;;;;5071066;28;20082;-83
2023/05/24 05:35:35;;;;;;;10.63;3.35;;;9.00;99.90;;;;;;5053266;28;20052;-83
2023/05/24 05:38:01;;;;;;;7.72;2.75;;;9.10;99.90;;;;;;5054668;28;20063;-82
2023/05/24 05:40:27;;;;;;;8.52;2.70;;;9.20;99.90;;;;;;5060777;28;20031;-83
2023/05/24 05:42:52;;;;;;;6.53;2.30;;;9.20;99.90;;;;;;5073367;28;20044;-81
2023/05/24 05:45:18;;;;;;;6.63;2.63;;;9.20;99.90;;;;;;5060721;28;20100;-83
2023/05/24 05:47:43;;;;;;;7.95;2.42;;;9.30;99.90;;;;;;5070459;28;20101;-83
2023/05/24 05:50:09;;;;;;;7.45;2.60;;;9.30;99.90;;;;;;5053707;28;20042;-83
2023/05/24 05:52:35;;;;;;;6.70;2.30;;;9.40;99.90;;;;;;5069368;28;20043;-82
2023/05/24 05:55:01;;;;;;;10.18;2.40;;;9.40;99.90;;;;;;5071794;28;20119;-81
2023/05/24 05:57:26;;;;;;;7.22;2.00;;;9.40;99.90;;;;;;5058998;28;20053;-83
2023/05/24 05:59:52;;;;;;;8.85;2.40;;;9.50;99.90;;;;;;5072530;28;20056;-83
2023/05/24 06:02:17;;;;;;;9.73;2.53;;;9.60;99.90;;;;;;5058607;28;20036;-80
2023/05/24 06:04:44;;;;;;;4.80;1.90;;;9.80;99.90;;;;;;5061016;28;20060;-82
2023/05/24 06:07:10;;;;;;;5.55;1.92;;;10.00;99.90;;;;;;5073551;28;20025;-82
2023/05/24 06:09:35;;;;;;;5.55;2.10;;;10.10;99.90;;;;;;5072398;28;20536;-82
2023/05/24 06:12:04;;;;;;;5.78;2.00;;;10.20;99.90;;;;;;5058604;28;20606;-82
2023/05/24 06:14:31;;;;;;;6.55;1.73;;;10.30;99.90;;;;;;5071081;28;20147;-83
2023/05/24 06:16:57;;;;;;;5.15;1.83;;;10.40;99.90;;;;;;5055227;28;20024;-83
2023/05/24 06:19:22;;;;;;;5.93;2.13;;;10.50;99.90;;;;;;5055615;28;20027;-83
2023/05/24 06:21:49;;;;;;;9.10;2.30;;;10.70;99.90;;;;;;5064369;28;20546;-83
2023/05/24 06:24:19;;;;;;;9.32;2.35;;;10.90;99.90;;;;;;5061546;28;20040;-83
2023/05/24 06:26:45;;;;;;;8.80;3.13;;;10.90;99.90;;;;;;5071490;28;20024;-83
2023/05/24 06:29:12;;;;;;;11.30;2.85;;;11.00;99.90;;;;;;5060794;28;20047;-84
2023/05/24 06:31:38;;;;;;;7.10;2.17;;;11.10;99.90;;;;;;5062997;28;20031;-83
2023/05/24 06:34:04;;;;;;;8.90;2.08;;;11.10;99.90;;;;;;5062194;28;20389;-83
2023/05/24 06:36:32;;;;;;;9.65;2.85;;;11.30;99.90;;;;;;5058928;28;20028;-82
2023/05/24 06:38:58;;;;;;;6.80;2.17;;;11.40;99.90;;;;;;5075575;28;20063;-83
2023/05/24 06:41:25;;;;;;;8.77;2.58;;;11.60;99.90;;;;;;5071929;28;20401;-83
2023/05/24 06:43:51;;;;;;;5.70;2.08;;;11.70;99.90;;;;;;5071831;28;20039;-83
2023/05/24 06:46:17;;;;;;;5.70;1.88;;;11.70;99.90;;;;;;5069963;28;20035;-84
2023/05/24 06:48:42;;;;;;;7.53;2.33;;;11.80;99.90;;;;;;5055569;28;20024;-85
2023/05/24 06:51:08;;;;;;;8.63;3.35;;;12.00;99.90;;;;;;5072890;28;20028;-85
2023/05/24 06:53:33;;;;;;;11.55;3.40;;;12.10;99.90;;;;;;5061959;28;20035;-83
2023/05/24 06:55:59;;;;;;;10.65;2.35;;;12.20;99.90;;;;;;5074544;28;20104;-82
2023/05/24 06:58:24;;;;;;;6.50;2.10;;;12.30;99.90;;;;;;5065841;28;20116;-83
2023/05/24 07:00:50;;;;;;;5.95;2.28;;;12.40;99.90;;;;;;5076186;28;20482;-83
2023/05/24 07:03:16;;;;;;;7.40;2.40;;;12.50;99.90;;;;;;5074293;28;20046;-82
2023/05/24 07:05:42;;;;;;;7.53;2.28;;;12.60;99.90;;;;;;5075864;28;20032;-83
2023/05/24 07:08:08;;;;;;;8.48;2.55;;;12.70;99.90;;;;;;5075572;28;20028;-83
2023/05/24 07:10:33;;;;;;;7.13;2.90;;;12.70;99.90;;;;;;5076333;28;20032;-83
2023/05/24 07:13:00;;;;;;;7.47;2.80;;;12.90;99.90;;;;;;5075247;28;20129;-82
2023/05/24 07:15:25;;;;;;;5.50;1.92;;;13.00;99.90;;;;;;5059679;28;20039;-83
2023/05/24 07:17:51;;;;;;;6.65;2.33;;;13.10;99.90;;;;;;5075562;28;20024;-83
2023/05/24 07:20:17;;;;;;;8.25;2.63;;;13.20;99.90;;;;;;5076893;28;20032;-83
2023/05/24 07:22:43;;;;;;;8.20;3.28;;;13.30;99.90;;;;;;5077568;28;20066;-83
2023/05/24 07:25:09;;;;;;;8.50;3.05;;;13.40;99.90;;;;;;5061930;28;20378;-82
2023/05/24 07:27:35;;;;;;;10.73;2.83;;;13.60;99.90;;;;;;5073988;28;20777;-83
2023/05/24 07:30:01;;;;;;;8.88;2.78;;;13.70;99.90;;;;;;5065300;28;20025;-84
2023/05/24 07:32:28;;;;;;;7.82;2.70;;;13.90;99.90;;;;;;5059571;28;20079;-84
2023/05/24 07:34:53;;;;;;;5.90;2.30;;;14.20;99.90;;;;;;5060082;28;20027;-82
2023/05/24 07:37:22;;;;;;;12.68;4.13;;;14.40;99.90;;;;;;5064871;28;20024;-82
2023/05/24 07:39:48;;;;;;;13.15;3.50;;;14.50;99.90;;;;;;5076135;28;20032;-83
2023/05/24 07:42:14;;;;;;;12.05;2.75;;;14.30;99.90;;;;;;5074813;28;20523;-84
2023/05/24 07:44:40;;;;;;;11.07;3.08;;;14.20;99.90;;;;;;5074899;28;20033;-83
2023/05/24 07:47:05;;;;;;;8.82;2.97;;;14.10;99.90;;;;;;5075234;28;20605;-83
2023/05/24 07:49:31;;;;;;;11.55;3.30;;;14.00;99.90;;;;;;5075736;28;20081;-84
2023/05/24 07:51:58;;;;;;;8.70;2.80;;;14.00;99.90;;;;;;5059675;28;20107;-85
2023/05/24 07:54:24;;;;;;;10.55;3.10;;;14.00;99.90;;;;;;5077184;28;20028;-82
2023/05/24 07:56:49;;;;;;;9.00;2.85;;;14.00;99.90;;;;;;5063668;28;20016;-83
2023/05/24 07:59:15;;;;;;;6.43;2.35;;;14.10;99.90;;;;;;5073092;28;20035;-82
2023/05/24 08:01:41;;;;;;;14.60;3.13;;;14.10;99.90;;;;;;5075411;28;20020;-82
2023/05/24 08:04:08;;;;;;;9.02;2.50;;;14.00;99.90;;;;;;5062510;28;20050;-83
2023/05/24 08:06:34;;;;;;;8.65;2.28;;;14.00;99.90;;;;;;5074433;28;20028;-83
2023/05/24 08:09:04;;;;;;;6.95;2.08;;;13.90;99.90;;;;;;5074549;28;20450;-84
2023/05/24 08:11:30;;;;;;;9.07;2.25;;;13.80;99.90;;;;;;5064729;28;20016;-83
2023/05/24 08:13:55;;;;;;;9.15;2.38;;;13.80;99.90;;;;;;5073631;28;20032;-83
2023/05/24 08:16:21;;;;;;;6.72;2.15;;;13.70;99.90;;;;;;5059384;28;20030;-85
2023/05/24 08:18:47;;;;;;;5.68;1.80;;;13.90;99.90;;;;;;5063327;28;20103;-84
2023/05/24 08:21:12;;;;;;;5.40;2.05;;;14.10;99.90;;;;;;5059897;28;20036;-82
2023/05/24 08:23:38;;;;;;;7.15;2.17;;;14.40;99.90;;;;;;5063282;28;20733;-83
2023/05/24 08:26:03;;;;;;;7.38;2.08;;;14.60;99.90;;;;;;5059282;28;20032;-85
2023/05/24 08:28:29;;;;;;;7.53;2.00;;;14.60;99.90;;;;;;5059088;28;20032;-83
2023/05/24 08:30:56;;;;;;;9.73;2.70;;;14.60;99.90;;;;;;5058330;28;20115;-84
2023/05/24 08:33:21;;;;;;;8.75;2.20;;;14.60;99.90;;;;;;5074197;28;20060;-83
2023/05/24 08:35:48;;;;;;;5.28;1.90;;;14.70;99.90;;;;;;5073908;28;20564;-83
2023/05/24 08:38:14;;;;;;;9.50;2.33;;;14.90;99.90;;;;;;5060941;28;20043;-84
2023/05/24 08:40:42;;;;;;;6.85;1.95;;;15.10;99.90;;;;;;5056122;28;20081;-84
2023/05/24 08:43:10;;;;;;;12.10;2.50;;;15.20;99.90;;;;;;5061780;28;20032;-85
2023/05/24 08:45:38;;;;;;;9.68;2.55;;;15.30;99.90;;;;;;5063842;28;20024;-82
2023/05/24 08:48:08;;;;;;;8.13;2.22;;;15.30;99.90;;;;;;5064823;28;20033;-84
2023/05/24 08:50:33;;;;;;;8.00;2.38;;;15.20;99.90;;;;;;5059707;28;20028;-83
2023/05/24 08:53:01;;;;;;;6.82;2.15;;;15.10;99.90;;;;;;5078029;28;20016;-83
2023/05/24 08:55:28;;;;;;;7.22;2.20;;;15.10;99.90;;;;;;5073769;28;20035;-83
2023/05/24 08:57:55;;;;;;;8.88;2.47;;;15.10;99.90;;;;;;5063903;28;20025;-84
2023/05/24 09:00:21;;;;;;;5.93;1.83;;;15.10;99.90;;;;;;5072610;28;20086;-83
2023/05/24 09:02:48;;;;;;;7.43;1.60;;;15.30;99.90;;;;;;5063082;28;20417;-82
2023/05/24 09:05:20;;;;;;;6.68;2.10;;;15.50;99.90;;;;;;5075769;28;20544;-81
2023/05/24 09:07:47;;;;;;;7.82;2.17;;;15.70;99.90;;;;;;5076072;28;20035;-82
2023/05/24 09:10:13;;;;;;;6.65;1.88;;;15.90;99.90;;;;;;5074791;28;20039;-84
2023/05/24 09:12:44;;;;;;;8.27;1.98;;;16.00;99.90;;;;;;5056231;28;20024;-82
2023/05/24 09:15:10;;;;;;;5.75;1.75;;;16.30;99.90;;;;;;5072993;28;20020;-83
2023/05/24 09:17:37;;;;;;;8.90;2.17;;;16.50;99.90;;;;;;5057018;28;20058;-84
2023/05/24 09:20:08;;;;;;;6.18;2.40;;;16.80;99.90;;;;;;5059440;28;20027;-84
2023/05/24 09:22:36;;;;;;;8.10;1.85;;;16.90;99.90;;;;;;5058854;28;20124;-83
2023/05/24 09:25:03;;;;;;;5.07;1.85;;;16.80;99.90;;;;;;5063414;28;20610;-81
2023/05/24 09:27:31;;;;;;;5.80;1.90;;;16.70;99.90;;;;;;5070520;28;20024;-82
2023/05/24 09:29:57;;;;;;;6.95;1.80;;;16.60;99.90;;;;;;5074165;28;20112;-81
2023/05/24 09:32:23;;;;;;;4.50;1.92;;;16.60;99.90;;;;;;5073003;28;20115;-82
2023/05/24 09:34:52;;;;;;;7.70;2.25;;;16.50;99.90;;;;;;5073236;28;20031;-82
2023/05/24 09:37:21;;;;;;;8.27;1.90;;;16.40;99.90;;;;;;5061729;28;20028;-82
2023/05/24 09:39:49;;;;;;;9.25;2.20;;;16.20;99.90;;;;;;5069429;28;20115;-82
2023/05/24 09:42:16;;;;;;;7.85;2.30;;;16.00;99.90;;;;;;5070270;28;20420;-84
2023/05/24 09:44:43;;;;;;;6.85;2.13;;;15.90;99.90;;;;;;5056919;28;20032;-82
2023/05/24 09:47:08;;;;;;;7.18;2.20;;;15.80;99.90;;;;;;5073864;28;20073;-83
2023/05/24 09:49:37;;;;;;;9.63;2.10;;;15.80;99.90;;;;;;5074505;28;20414;-81
2023/05/24 09:52:03;;;;;;;8.35;1.92;;;15.70;99.90;;;;;;5071600;28;20016;-82
2023/05/24 09:54:31;;;;;;;10.27;2.17;;;15.70;99.90;;;;;;5072229;28;20024;-82
2023/05/24 09:57:00;;;;;;;6.78;1.92;;;15.70;99.90;;;;;;5061280;28;20032;-82
2023/05/24 09:59:26;;;;;;;7.45;2.05;;;15.80;99.90;;;;;;5057505;28;20482;-83
2023/05/24 10:02:05;;;;;;;6.18;1.95;;;15.80;99.90;;;;;;5058460;28;20028;-83
2023/05/24 10:04:34;;;;;;;6.53;2.13;;;15.80;99.90;;;;;;5074106;28;20521;-83
2023/05/24 10:07:01;;;;;;;8.93;2.10;;;15.70;99.90;;;;;;5059108;28;20035;-83
2023/05/24 10:09:32;;;;;;;6.18;2.30;;;15.60;99.90;;;;;;5054799;28;20502;-83
2023/05/24 10:12:04;;;;;;;7.57;1.95;;;15.60;99.90;;;;;;5058127;28;20070;-82
2023/05/24 10:14:35;;;;;;;6.72;1.88;;;15.60;99.90;;;;;;5053839;28;20032;-82
2023/05/24 10:17:04;;;;;;;8.40;2.10;;;15.50;99.90;;;;;;5062570;28;20567;-84
2023/05/24 10:19:30;;;;;;;8.07;2.05;;;15.40;99.90;;;;;;5073232;28;20104;-82
2023/05/24 10:21:57;;;;;;;4.88;1.40;;;15.50;99.90;;;;;;5065684;28;20048;-83
2023/05/24 10:24:28;;;;;;;4.95;1.73;;;15.50;99.90;;;;;;5055252;28;20068;-82
2023/05/24 10:26:54;;;;;;;5.85;1.60;;;15.50;99.90;;;;;;5062044;28;20107;-78
2023/05/24 10:29:47;;;;;;;4.15;1.80;;;15.60;99.90;;;;;;5071971;28;20397;-83
2023/05/24 10:32:15;;;;;;;6.55;1.58;;;15.60;99.90;;;;;;5034312;28;20127;-84
2023/05/24 10:34:42;;;;;;;6.05;1.77;;;15.70;99.90;;;;;;5075073;28;20066;-85
2023/05/24 10:37:08;;;;;;;5.18;1.40;;;15.70;99.90;;;;;;5057318;28;20028;-85
2023/05/24 10:39:34;;;;;;;4.10;1.23;;;15.70;99.90;;;;;;5072831;28;20021;-84
2023/05/24 10:42:05;;;;;;;5.55;1.55;;;15.80;99.90;;;;;;5073534;28;20031;-83
2023/05/24 10:44:31;;;;;;;8.40;2.17;;;16.10;99.90;;;;;;5069626;28;20111;-82
2023/05/24 10:47:07;;;;;;;5.53;1.80;;;16.30;99.90;;;;;;5054499;28;20020;-82
2023/05/24 10:49:33;;;;;;;6.28;1.92;;;16.40;99.90;;;;;;5069275;28;20059;-82
2023/05/24 10:52:17;;;;;;;5.63;1.52;;;16.50;99.90;;;;;;5058010;28;20111;-82
2023/05/24 10:55:09;;;;;;;7.32;2.03;;;16.50;99.90;;;;;;5054949;28;20036;-84
2023/05/24 10:57:36;;;;;;;4.20;1.42;;;16.50;99.90;;;;;;5053280;28;20281;-83
2023/05/24 11:00:20;;;;;;;4.95;1.60;;;16.40;99.90;;;;;;5067553;28;20087;-82
2023/05/24 11:03:02;;;;;;;5.47;1.38;;;16.50;99.90;;;;;;5068099;28;20060;-82
2023/05/24 11:05:51;;;;;;;4.97;1.50;;;16.70;99.90;;;;;;5057702;28;20024;-82
2023/05/24 11:08:32;;;;;;;8.10;1.60;;;17.20;99.90;;;;;;5054103;28;20036;-85
2023/05/24 11:11:10;;;;;;;5.63;1.52;;;17.50;99.90;;;;;;5052534;28;20367;-83
2023/05/24 11:13:37;;;;;;;6.80;1.95;;;17.60;99.90;;;;;;5052800;28;20504;-82
2023/05/24 11:16:04;;;;;;;7.32;2.08;;;17.70;99.90;;;;;;5072556;28;20029;-83
2023/05/24 11:18:30;;;;;;;5.90;1.80;;;17.90;99.90;;;;;;5070267;28;20031;-83
2023/05/24 11:20:57;;;;;;;4.40;1.50;;;18.30;99.90;;;;;;5070725;28;20024;-84
2023/05/24 11:23:24;;;;;;;7.32;2.28;;;18.50;99.90;;;;;;5060306;28;20137;-82
2023/05/24 11:25:51;;;;;;;7.35;1.70;;;18.80;99.90;;;;;;5061146;28;20381;-83
2023/05/24 11:28:17;;;;;;;6.22;1.40;;;19.20;99.90;;;;;;5059754;28;20016;-82
2023/05/24 11:30:47;;;;;;;6.80;1.67;;;19.40;99.90;;;;;;5056045;28;20568;-83
2023/05/24 11:33:23;;;;;;;4.10;1.60;;;19.50;99.90;;;;;;5070644;28;20057;-84
2023/05/24 11:35:54;;;;;;;6.43;1.95;;;19.50;99.90;;;;;;5057040;28;20024;-83
2023/05/24 11:38:20;;;;;;;4.53;1.70;;;19.70;99.90;;;;;;5070785;28;20028;-84
2023/05/24 11:40:48;;;;;;;5.20;1.60;;;19.90;99.90;;;;;;5064895;28;20035;-83
2023/05/24 11:43:18;;;;;;;5.05;1.80;;;20.00;99.90;;;;;;5075877;28;20505;-82
2023/05/24 11:45:47;;;;;;;4.78;1.42;;;20.20;99.90;;;;;;5075203;28;20134;-83
2023/05/24 11:48:13;;;;;;;5.13;1.98;;;20.40;99.90;;;;;;5059622;28;20465;-85
2023/05/24 11:50:41;;;;;;;7.07;2.00;;;20.90;99.90;;;;;;5063916;28;20047;-83
2023/05/24 11:53:11;;;;;;;6.18;1.83;;;21.00;99.90;;;;;;5074010;28;20032;-83
2023/05/24 11:55:39;;;;;;;4.05;1.70;;;20.90;99.90;;;;;;5063094;28;20490;-83
2023/05/24 11:58:15;;;;;;;10.05;2.00;;;20.50;99.90;;;;;;5061555;28;20023;-84
2023/05/24 12:00:42;;;;;;;5.28;1.73;;;20.20;99.90;;;;;;5075192;28;20426;-82
2023/05/24 12:03:08;;;;;;;5.97;1.90;;;19.80;99.90;;;;;;5064027;28;20024;-85
2023/05/24 12:05:36;;;;;;;5.30;1.50;;;19.80;99.90;;;;;;5065884;28;20031;-85
2023/05/24 12:08:04;;;;;;;5.03;1.80;;;20.20;99.90;;;;;;5065366;28;20032;-83
2023/05/24 12:10:37;;;;;;;6.40;1.95;;;20.80;99.90;;;;;;5064509;28;20054;-83
2023/05/24 12:13:04;;;;;;;5.85;1.95;;;21.30;99.90;;;;;;5076538;28;20059;-84
2023/05/24 12:15:30;;;;;;;6.07;1.70;;;21.40;99.90;;;;;;5058867;28;20020;-84
2023/05/24 12:17:56;;;;;;;5.90;1.90;;;21.20;99.90;;;;;;5058336;28;20027;-84
2023/05/24 12:20:22;;;;;;;6.53;2.08;;;21.00;99.90;;;;;;5074926;28;20665;-85
2023/05/24 12:22:52;;;;;;;7.85;2.10;;;21.30;99.90;;;;;;5067564;28;20078;-84
2023/05/24 12:25:20;;;;;;;6.63;2.08;;;22.10;99.90;;;;;;5074794;28;20020;-82
2023/05/24 12:27:52;;;;;;;4.22;1.58;;;23.20;99.20;;;;;;5075008;28;20035;-83
2023/05/24 12:30:22;;;;;;;4.95;1.90;;;23.10;98.80;;;;;;5057050;28;20031;-85
2023/05/24 12:32:48;;;;;;;7.30;2.25;;;22.40;98.30;;;;;;5073742;28;20036;-84
2023/05/24 12:35:19;;;;;;;7.43;2.33;;;21.50;98.30;;;;;;5060409;28;20028;-85
2023/05/24 12:37:45;;;;;;;5.95;1.75;;;20.60;98.60;;;;;;5058235;28;20655;-85
2023/05/24 12:40:32;;;;;;;5.32;1.88;;;19.90;98.90;;;;;;5060939;28;20561;-85
2023/05/24 12:42:58;;;;;;;4.65;1.92;;;19.90;99.50;;;;;;5076008;28;20745;-85
2023/05/24 12:45:27;;;;;;;4.50;1.80;;;20.70;99.30;;;;;;5058001;28;20023;-86
2023/05/24 12:47:54;;;;;;;6.53;1.63;;;20.90;99.00;;;;;;5058169;28;20054;-84
2023/05/24 12:50:21;;;;;;;5.47;1.88;;;20.90;98.80;;;;;;5055646;28;20520;-84
2023/05/24 12:52:47;;;;;;;5.10;1.83;;;20.60;98.70;;;;;;5072395;28;20028;-85
2023/05/24 12:55:14;;;;;;;4.88;1.85;;;20.20;99.00;;;;;;5062831;28;20103;-84